sensor_id;sensor_type;location;lat;lon;timestamp;P1;durP1;ratioP1;P2;durP2;ratioP2
72369;SDS011;60343;-32.030;115.880;2022-12-07T00:01:09;1.30;;;0.15;;
72369;SDS011;60343;-32.030;115.880;2022-12-07T00:03:38;3.42;;;0.20;;
72369;SDS011;60343;-32.030;115.880;2022-12-07T00:06:07;1.83;;;0.25;;
72369;SDS011;60343;-32.030;115.880;2022-12-07T00:08:42;3.95;;;0.40;;
72369;SDS011;60343;-32.030;115.880;2022-12-07T00:11:10;2.95;;;0.40;;
72369;SDS011;60343;-32.030;115.880;2022-12-07T00:13:40;2.53;;;0.30;;
72369;SDS011;60343;-32.030;115.880;2022-12-07T00:16:08;1.48;;;0.22;;
72369;SDS011;60343;-32.030;115.880;2022-12-07T00:18:38;0.90;;;0.15;;
72369;SDS011;60343;-32.030;115.880;2022-12-07T00:21:06;1.25;;;0.20;;
72369;SDS011;60343;-32.030;115.880;2022-12-07T00:23:42;1.55;;;0.20;;
72369;SDS011;60343;-32.030;115.880;2022-12-07T00:26:11;1.20;;;0.10;;
72369;SDS011;60343;-32.030;115.880;2022-12-07T00:28:39;3.78;;;0.20;;
72369;SDS011;60343;-32.030;115.880;2022-12-07T00:31:11;3.00;;;0.30;;
72369;SDS011;60343;-32.030;115.880;2022-12-07T00:33:39;0.98;;;0.20;;
72369;SDS011;60343;-32.030;115.880;2022-12-07T00:36:08;1.58;;;0.17;;
72369;SDS011;60343;-32.030;115.880;2022-12-07T00:38:43;3.13;;;0.40;;
72369;SDS011;60343;-32.030;115.880;2022-12-07T00:41:11;3.15;;;0.22;;
72369;SDS011;60343;-32.030;115.880;2022-12-07T00:43:40;4.65;;;0.32;;
72369;SDS011;60343;-32.030;115.880;2022-12-07T00:46:09;1.85;;;0.20;;
72369;SDS011;60343;-32.030;115.880;2022-12-07T00:48:37;1.52;;;0.20;;
72369;SDS011;60343;-32.030;115.880;2022-12-07T00:51:06;2.97;;;0.47;;
72369;SDS011;60343;-32.030;115.880;2022-12-07T00:53:41;3.20;;;0.45;;
72369;SDS011;60343;-32.030;115.880;2022-12-07T00:56:09;1.40;;;0.20;;
72369;SDS011;60343;-32.030;115.880;2022-12-07T00:58:38;2.33;;;0.20;;
72369;SDS011;60343;-32.030;115.880;2022-12-07T01:01:09;5.35;;;0.20;;
72369;SDS011;60343;-32.030;115.880;2022-12-07T01:03:37;1.52;;;0.10;;
72369;SDS011;60343;-32.030;115.880;2022-12-07T01:06:05;4.40;;;0.35;;
72369;SDS011;60343;-32.030;115.880;2022-12-07T01:08:33;1.88;;;0.30;;
72369;SDS011;60343;-32.030;115.880;2022-12-07T01:11:07;2.05;;;0.20;;
72369;SDS011;60343;-32.030;115.880;2022-12-07T01:13:38;0.55;;;0.10;;
72369;SDS011;60343;-32.030;115.880;2022-12-07T01:16:06;1.05;;;0.30;;
72369;SDS011;60343;-32.030;115.880;2022-12-07T01:18:36;0.95;;;0.20;;
72369;SDS011;60343;-32.030;115.880;2022-12-07T01:21:05;2.63;;;0.30;;
72369;SDS011;60343;-32.030;115.880;2022-12-07T01:23:40;2.28;;;0.20;;
72369;SDS011;60343;-32.030;115.880;2022-12-07T01:26:14;3.30;;;0.30;;
72369;SDS011;60343;-32.030;115.880;2022-12-07T01:28:44;2.53;;;0.30;;
72369;SDS011;60343;-32.030;115.880;2022-12-07T01:31:13;1.77;;;0.20;;
72369;SDS011;60343;-32.030;115.880;2022-12-07T01:33:42;2.90;;;0.30;;
72369;SDS011;60343;-32.030;115.880;2022-12-07T01:36:13;4.95;;;0.30;;
72369;SDS011;60343;-32.030;115.880;2022-12-07T01:38:42;1.35;;;0.20;;
72369;SDS011;60343;-32.030;115.880;2022-12-07T01:41:16;2.53;;;0.30;;
72369;SDS011;60343;-32.030;115.880;2022-12-07T01:46:37;1.13;;;0.20;;
72369;SDS011;60343;-32.030;115.880;2022-12-07T01:49:05;1.77;;;0.22;;
72369;SDS011;60343;-32.030;115.880;2022-12-07T01:51:34;2.63;;;0.20;;
72369;SDS011;60343;-32.030;115.880;2022-12-07T01:54:06;1.98;;;0.30;;
72369;SDS011;60343;-32.030;115.880;2022-12-07T01:56:41;3.38;;;0.20;;
72369;SDS011;60343;-32.030;115.880;2022-12-07T01:59:14;4.07;;;0.40;;
72369;SDS011;60343;-32.030;115.880;2022-12-07T02:01:43;1.05;;;0.13;;
72369;SDS011;60343;-32.030;115.880;2022-12-07T02:04:11;1.45;;;0.25;;
72369;SDS011;60343;-32.030;115.880;2022-12-07T02:06:39;4.38;;;0.32;;
72369;SDS011;60343;-32.030;115.880;2022-12-07T02:09:09;2.00;;;0.30;;
72369;SDS011;60343;-32.030;115.880;2022-12-07T02:11:42;2.45;;;0.28;;
72369;SDS011;60343;-32.030;115.880;2022-12-07T02:14:10;5.03;;;0.25;;
72369;SDS011;60343;-32.030;115.880;2022-12-07T02:16:41;1.77;;;0.20;;
72369;SDS011;60343;-32.030;115.880;2022-12-07T02:19:26;2.22;;;0.30;;
72369;SDS011;60343;-32.030;115.880;2022-12-07T02:22:37;2.47;;;0.25;;
72369;SDS011;60343;-32.030;115.880;2022-12-07T02:25:27;2.63;;;0.30;;
72369;SDS011;60343;-32.030;115.880;2022-12-07T02:28:18;2.08;;;0.20;;
72369;SDS011;60343;-32.030;115.880;2022-12-07T02:31:01;2.47;;;0.30;;
72369;SDS011;60343;-32.030;115.880;2022-12-07T02:33:33;2.70;;;0.25;;
72369;SDS011;60343;-32.030;115.880;2022-12-07T02:36:08;2.83;;;0.20;;
72369;SDS011;60343;-32.030;115.880;2022-12-07T02:38:43;1.20;;;0.25;;
72369;SDS011;60343;-32.030;115.880;2022-12-07T02:41:16;2.47;;;0.43;;
72369;SDS011;60343;-32.030;115.880;2022-12-07T02:43:52;2.67;;;0.30;;
72369;SDS011;60343;-32.030;115.880;2022-12-07T02:46:28;4.25;;;0.45;;
72369;SDS011;60343;-32.030;115.880;2022-12-07T02:48:59;3.20;;;0.30;;
72369;SDS011;60343;-32.030;115.880;2022-12-07T02:51:30;1.75;;;0.30;;
72369;SDS011;60343;-32.030;115.880;2022-12-07T02:53:58;0.43;;;0.10;;
72369;SDS011;60343;-32.030;115.880;2022-12-07T02:56:26;3.30;;;0.40;;
72369;SDS011;60343;-32.030;115.880;2022-12-07T02:59:05;1.65;;;0.20;;
72369;SDS011;60343;-32.030;115.880;2022-12-07T03:01:48;2.30;;;0.25;;
72369;SDS011;60343;-32.030;115.880;2022-12-07T03:04:30;2.67;;;0.20;;
72369;SDS011;60343;-32.030;115.880;2022-12-07T03:07:08;1.38;;;0.20;;
72369;SDS011;60343;-32.030;115.880;2022-12-07T03:09:45;3.38;;;0.25;;
72369;SDS011;60343;-32.030;115.880;2022-12-07T03:12:20;2.00;;;0.30;;
72369;SDS011;60343;-32.030;115.880;2022-12-07T03:14:55;3.30;;;0.40;;
72369;SDS011;60343;-32.030;115.880;2022-12-07T03:17:32;3.95;;;0.30;;
72369;SDS011;60343;-32.030;115.880;2022-12-07T03:20:06;2.67;;;0.30;;
72369;SDS011;60343;-32.030;115.880;2022-12-07T03:22:37;2.08;;;0.30;;
72369;SDS011;60343;-32.030;115.880;2022-12-07T03:25:08;2.38;;;0.20;;
72369;SDS011;60343;-32.030;115.880;2022-12-07T03:27:41;3.55;;;0.40;;
72369;SDS011;60343;-32.030;115.880;2022-12-07T03:30:16;1.25;;;0.20;;
72369;SDS011;60343;-32.030;115.880;2022-12-07T03:32:53;2.08;;;0.40;;
72369;SDS011;60343;-32.030;115.880;2022-12-07T03:37:54;1.27;;;0.20;;
72369;SDS011;60343;-32.030;115.880;2022-12-07T03:40:26;1.98;;;0.28;;
72369;SDS011;60343;-32.030;115.880;2022-12-07T03:42:58;3.40;;;0.30;;
72369;SDS011;60343;-32.030;115.880;2022-12-07T03:45:31;4.85;;;0.30;;
72369;SDS011;60343;-32.030;115.880;2022-12-07T03:48:12;3.55;;;0.40;;
72369;SDS011;60343;-32.030;115.880;2022-12-07T03:50:48;2.17;;;0.28;;
72369;SDS011;60343;-32.030;115.880;2022-12-07T03:53:20;2.60;;;0.43;;
72369;SDS011;60343;-32.030;115.880;2022-12-07T03:55:53;5.43;;;0.40;;
72369;SDS011;60343;-32.030;115.880;2022-12-07T03:58:23;2.40;;;0.20;;
72369;SDS011;60343;-32.030;115.880;2022-12-07T04:00:51;3.13;;;0.38;;
72369;SDS011;60343;-32.030;115.880;2022-12-07T04:03:25;2.08;;;0.20;;
72369;SDS011;60343;-32.030;115.880;2022-12-07T04:05:52;4.22;;;0.45;;
72369;SDS011;60343;-32.030;115.880;2022-12-07T04:08:20;2.33;;;0.30;;
72369;SDS011;60343;-32.030;115.880;2022-12-07T04:10:48;3.28;;;0.25;;
72369;SDS011;60343;-32.030;115.880;2022-12-07T04:13:16;2.05;;;0.20;;
72369;SDS011;60343;-32.030;115.880;2022-12-07T04:15:43;1.42;;;0.40;;
72369;SDS011;60343;-32.030;115.880;2022-12-07T04:18:11;4.65;;;0.43;;
72369;SDS011;60343;-32.030;115.880;2022-12-07T04:20:45;3.10;;;0.40;;
72369;SDS011;60343;-32.030;115.880;2022-12-07T04:23:13;1.58;;;0.20;;
72369;SDS011;60343;-32.030;115.880;2022-12-07T04:25:41;1.58;;;0.38;;
72369;SDS011;60343;-32.030;115.880;2022-12-07T04:28:08;2.83;;;0.30;;
72369;SDS011;60343;-32.030;115.880;2022-12-07T04:30:36;4.15;;;0.30;;
72369;SDS011;60343;-32.030;115.880;2022-12-07T04:33:04;1.98;;;0.20;;
72369;SDS011;60343;-32.030;115.880;2022-12-07T04:35:32;3.22;;;0.40;;
72369;SDS011;60343;-32.030;115.880;2022-12-07T04:38:05;1.88;;;0.20;;
72369;SDS011;60343;-32.030;115.880;2022-12-07T04:40:33;3.10;;;0.50;;
72369;SDS011;60343;-32.030;115.880;2022-12-07T04:43:00;2.35;;;0.25;;
72369;SDS011;60343;-32.030;115.880;2022-12-07T04:45:28;3.13;;;0.30;;
72369;SDS011;60343;-32.030;115.880;2022-12-07T04:47:56;2.55;;;0.40;;
72369;SDS011;60343;-32.030;115.880;2022-12-07T04:50:24;2.05;;;0.32;;
72369;SDS011;60343;-32.030;115.880;2022-12-07T04:52:51;1.50;;;0.20;;
72369;SDS011;60343;-32.030;115.880;2022-12-07T04:55:25;4.07;;;0.50;;
72369;SDS011;60343;-32.030;115.880;2022-12-07T04:57:52;2.70;;;0.30;;
72369;SDS011;60343;-32.030;115.880;2022-12-07T05:00:20;3.22;;;0.40;;
72369;SDS011;60343;-32.030;115.880;2022-12-07T05:02:48;1.70;;;0.20;;
72369;SDS011;60343;-32.030;115.880;2022-12-07T05:05:16;2.33;;;0.20;;
72369;SDS011;60343;-32.030;115.880;2022-12-07T05:07:44;2.42;;;0.30;;
72369;SDS011;60343;-32.030;115.880;2022-12-07T05:10:11;1.67;;;0.20;;
72369;SDS011;60343;-32.030;115.880;2022-12-07T05:12:45;2.90;;;0.35;;
72369;SDS011;60343;-32.030;115.880;2022-12-07T05:15:12;2.20;;;0.30;;
72369;SDS011;60343;-32.030;115.880;2022-12-07T05:17:41;2.20;;;0.30;;
72369;SDS011;60343;-32.030;115.880;2022-12-07T05:20:09;0.98;;;0.20;;
72369;SDS011;60343;-32.030;115.880;2022-12-07T05:22:37;2.28;;;0.20;;
72369;SDS011;60343;-32.030;115.880;2022-12-07T05:25:04;2.08;;;0.30;;
72369;SDS011;60343;-32.030;115.880;2022-12-07T05:27:33;2.80;;;0.28;;
72369;SDS011;60343;-32.030;115.880;2022-12-07T05:30:06;2.97;;;0.43;;
72369;SDS011;60343;-32.030;115.880;2022-12-07T05:32:35;3.33;;;0.40;;
72369;SDS011;60343;-32.030;115.880;2022-12-07T05:35:02;1.23;;;0.25;;
72369;SDS011;60343;-32.030;115.880;2022-12-07T05:37:31;4.80;;;0.30;;
72369;SDS011;60343;-32.030;115.880;2022-12-07T05:39:58;2.67;;;0.22;;
72369;SDS011;60343;-32.030;115.880;2022-12-07T05:42:26;2.63;;;0.30;;
72369;SDS011;60343;-32.030;115.880;2022-12-07T05:44:54;3.65;;;0.50;;
72369;SDS011;60343;-32.030;115.880;2022-12-07T05:47:27;1.35;;;0.28;;
72369;SDS011;60343;-32.030;115.880;2022-12-07T05:49:55;4.45;;;0.63;;
72369;SDS011;60343;-32.030;115.880;2022-12-07T05:52:22;0.70;;;0.20;;
72369;SDS011;60343;-32.030;115.880;2022-12-07T05:54:50;3.83;;;0.30;;
72369;SDS011;60343;-32.030;115.880;2022-12-07T05:57:18;2.08;;;0.30;;
72369;SDS011;60343;-32.030;115.880;2022-12-07T05:59:46;3.50;;;0.45;;
72369;SDS011;60343;-32.030;115.880;2022-12-07T06:02:14;1.65;;;0.45;;
72369;SDS011;60343;-32.030;115.880;2022-12-07T06:04:48;6.80;;;0.40;;
72369;SDS011;60343;-32.030;115.880;2022-12-07T06:07:16;1.67;;;0.25;;
72369;SDS011;60343;-32.030;115.880;2022-12-07T06:09:44;9.50;;;0.38;;
72369;SDS011;60343;-32.030;115.880;2022-12-07T06:12:12;2.95;;;0.30;;
72369;SDS011;60343;-32.030;115.880;2022-12-07T06:14:40;3.00;;;0.50;;
72369;SDS011;60343;-32.030;115.880;2022-12-07T06:17:08;1.92;;;0.55;;
72369;SDS011;60343;-32.030;115.880;2022-12-07T06:19:37;1.63;;;0.30;;
72369;SDS011;60343;-32.030;115.880;2022-12-07T06:22:10;3.47;;;0.40;;
72369;SDS011;60343;-32.030;115.880;2022-12-07T06:24:39;1.67;;;0.30;;
72369;SDS011;60343;-32.030;115.880;2022-12-07T06:27:06;2.90;;;0.22;;
72369;SDS011;60343;-32.030;115.880;2022-12-07T06:29:34;2.17;;;0.25;;
72369;SDS011;60343;-32.030;115.880;2022-12-07T06:32:02;3.22;;;0.30;;
72369;SDS011;60343;-32.030;115.880;2022-12-07T06:34:30;3.05;;;0.35;;
72369;SDS011;60343;-32.030;115.880;2022-12-07T06:36:58;2.78;;;0.30;;
72369;SDS011;60343;-32.030;115.880;2022-12-07T06:39:31;3.60;;;0.40;;
72369;SDS011;60343;-32.030;115.880;2022-12-07T06:41:59;2.58;;;0.30;;
72369;SDS011;60343;-32.030;115.880;2022-12-07T06:44:26;2.67;;;0.35;;
72369;SDS011;60343;-32.030;115.880;2022-12-07T06:46:54;2.47;;;0.30;;
72369;SDS011;60343;-32.030;115.880;2022-12-07T06:49:22;2.78;;;0.38;;
72369;SDS011;60343;-32.030;115.880;2022-12-07T06:51:53;1.05;;;0.20;;
72369;SDS011;60343;-32.030;115.880;2022-12-07T06:54:21;3.95;;;0.30;;
72369;SDS011;60343;-32.030;115.880;2022-12-07T06:56:54;5.20;;;1.00;;
72369;SDS011;60343;-32.030;115.880;2022-12-07T06:59:22;1.98;;;0.38;;
72369;SDS011;60343;-32.030;115.880;2022-12-07T07:01:50;3.63;;;0.35;;
72369;SDS011;60343;-32.030;115.880;2022-12-07T07:04:17;3.55;;;0.30;;
72369;SDS011;60343;-32.030;115.880;2022-12-07T07:06:45;4.68;;;0.50;;
72369;SDS011;60343;-32.030;115.880;2022-12-07T07:09:13;3.95;;;0.40;;
72369;SDS011;60343;-32.030;115.880;2022-12-07T07:11:41;1.90;;;0.40;;
72369;SDS011;60343;-32.030;115.880;2022-12-07T07:14:14;3.20;;;0.47;;
72369;SDS011;60343;-32.030;115.880;2022-12-07T07:16:42;1.75;;;0.30;;
72369;SDS011;60343;-32.030;115.880;2022-12-07T07:19:10;3.10;;;0.50;;
72369;SDS011;60343;-32.030;115.880;2022-12-07T07:21:37;3.33;;;0.40;;
72369;SDS011;60343;-32.030;115.880;2022-12-07T07:24:05;4.00;;;0.45;;
72369;SDS011;60343;-32.030;115.880;2022-12-07T07:26:33;1.58;;;0.20;;
72369;SDS011;60343;-32.030;115.880;2022-12-07T07:29:01;1.73;;;0.20;;
72369;SDS011;60343;-32.030;115.880;2022-12-07T07:31:34;3.08;;;0.47;;
72369;SDS011;60343;-32.030;115.880;2022-12-07T07:34:02;1.73;;;0.40;;
72369;SDS011;60343;-32.030;115.880;2022-12-07T07:36:30;3.00;;;0.30;;
72369;SDS011;60343;-32.030;115.880;2022-12-07T07:38:58;2.10;;;0.32;;
72369;SDS011;60343;-32.030;115.880;2022-12-07T07:41:26;2.17;;;0.20;;
72369;SDS011;60343;-32.030;115.880;2022-12-07T07:43:54;2.42;;;0.35;;
72369;SDS011;60343;-32.030;115.880;2022-12-07T07:46:21;3.42;;;0.40;;
72369;SDS011;60343;-32.030;115.880;2022-12-07T07:48:56;2.58;;;0.30;;
72369;SDS011;60343;-32.030;115.880;2022-12-07T07:51:23;6.25;;;0.40;;
72369;SDS011;60343;-32.030;115.880;2022-12-07T07:53:51;10.07;;;0.88;;
72369;SDS011;60343;-32.030;115.880;2022-12-07T07:56:19;3.47;;;0.38;;
72369;SDS011;60343;-32.030;115.880;2022-12-07T07:58:46;3.42;;;0.40;;
72369;SDS011;60343;-32.030;115.880;2022-12-07T08:01:17;3.03;;;0.20;;
72369;SDS011;60343;-32.030;115.880;2022-12-07T08:03:45;1.88;;;0.25;;
72369;SDS011;60343;-32.030;115.880;2022-12-07T08:06:19;2.65;;;0.20;;
72369;SDS011;60343;-32.030;115.880;2022-12-07T08:08:46;2.67;;;0.60;;
72369;SDS011;60343;-32.030;115.880;2022-12-07T08:11:14;2.30;;;0.45;;
72369;SDS011;60343;-32.030;115.880;2022-12-07T08:13:42;3.55;;;0.43;;
72369;SDS011;60343;-32.030;115.880;2022-12-07T08:16:12;2.05;;;0.30;;
72369;SDS011;60343;-32.030;115.880;2022-12-07T08:18:40;3.72;;;0.38;;
72369;SDS011;60343;-32.030;115.880;2022-12-07T08:21:10;1.83;;;0.40;;
72369;SDS011;60343;-32.030;115.880;2022-12-07T08:23:46;4.82;;;0.40;;
72369;SDS011;60343;-32.030;115.880;2022-12-07T08:26:14;2.22;;;0.30;;
72369;SDS011;60343;-32.030;115.880;2022-12-07T08:28:43;2.20;;;0.38;;
72369;SDS011;60343;-32.030;115.880;2022-12-07T08:31:11;2.25;;;0.20;;
72369;SDS011;60343;-32.030;115.880;2022-12-07T08:33:41;3.55;;;0.40;;
72369;SDS011;60343;-32.030;115.880;2022-12-07T08:36:10;4.63;;;0.40;;
72369;SDS011;60343;-32.030;115.880;2022-12-07T08:38:39;1.60;;;0.30;;
72369;SDS011;60343;-32.030;115.880;2022-12-07T08:41:12;1.48;;;0.28;;
72369;SDS011;60343;-32.030;115.880;2022-12-07T08:43:41;2.20;;;0.30;;
72369;SDS011;60343;-32.030;115.880;2022-12-07T08:46:10;3.25;;;0.28;;
72369;SDS011;60343;-32.030;115.880;2022-12-07T08:48:43;3.78;;;0.60;;
72369;SDS011;60343;-32.030;115.880;2022-12-07T08:51:17;2.40;;;0.30;;
72369;SDS011;60343;-32.030;115.880;2022-12-07T08:53:50;2.63;;;0.50;;
72369;SDS011;60343;-32.030;115.880;2022-12-07T08:56:20;2.53;;;0.30;;
72369;SDS011;60343;-32.030;115.880;2022-12-07T08:58:49;2.10;;;0.35;;
72369;SDS011;60343;-32.030;115.880;2022-12-07T09:01:16;1.38;;;0.20;;
72369;SDS011;60343;-32.030;115.880;2022-12-07T09:03:44;3.53;;;0.40;;
72369;SDS011;60343;-32.030;115.880;2022-12-07T09:06:12;2.28;;;0.40;;
72369;SDS011;60343;-32.030;115.880;2022-12-07T09:08:40;1.75;;;0.20;;
72369;SDS011;60343;-32.030;115.880;2022-12-07T09:13:43;2.08;;;0.30;;
72369;SDS011;60343;-32.030;115.880;2022-12-07T09:16:11;0.93;;;0.20;;
72369;SDS011;60343;-32.030;115.880;2022-12-07T09:18:39;4.22;;;0.30;;
72369;SDS011;60343;-32.030;115.880;2022-12-07T09:21:07;4.20;;;0.43;;
72369;SDS011;60343;-32.030;115.880;2022-12-07T09:23:35;1.95;;;0.32;;
72369;SDS011;60343;-32.030;115.880;2022-12-07T09:26:03;4.18;;;0.38;;
72369;SDS011;60343;-32.030;115.880;2022-12-07T09:28:36;4.68;;;0.30;;
72369;SDS011;60343;-32.030;115.880;2022-12-07T09:31:04;3.33;;;0.40;;
72369;SDS011;60343;-32.030;115.880;2022-12-07T09:33:32;5.97;;;0.70;;
72369;SDS011;60343;-32.030;115.880;2022-12-07T09:36:00;8.52;;;1.30;;
72369;SDS011;60343;-32.030;115.880;2022-12-07T09:38:29;11.57;;;1.25;;
72369;SDS011;60343;-32.030;115.880;2022-12-07T09:40:56;9.30;;;1.35;;
72369;SDS011;60343;-32.030;115.880;2022-12-07T09:43:30;8.45;;;1.35;;
72369;SDS011;60343;-32.030;115.880;2022-12-07T09:46:05;8.02;;;1.00;;
72369;SDS011;60343;-32.030;115.880;2022-12-07T09:48:36;8.38;;;0.90;;
72369;SDS011;60343;-32.030;115.880;2022-12-07T09:51:10;9.68;;;0.98;;
72369;SDS011;60343;-32.030;115.880;2022-12-07T09:53:42;7.13;;;1.02;;
72369;SDS011;60343;-32.030;115.880;2022-12-07T09:56:11;8.68;;;1.40;;
72369;SDS011;60343;-32.030;115.880;2022-12-07T09:58:46;6.97;;;1.10;;
72369;SDS011;60343;-32.030;115.880;2022-12-07T10:01:16;7.82;;;1.67;;
72369;SDS011;60343;-32.030;115.880;2022-12-07T10:03:47;8.70;;;1.10;;
72369;SDS011;60343;-32.030;115.880;2022-12-07T10:06:16;9.52;;;1.02;;
72369;SDS011;60343;-32.030;115.880;2022-12-07T10:08:44;7.70;;;1.13;;
72369;SDS011;60343;-32.030;115.880;2022-12-07T10:11:12;6.88;;;0.90;;
72369;SDS011;60343;-32.030;115.880;2022-12-07T10:13:40;7.10;;;0.95;;
72369;SDS011;60343;-32.030;115.880;2022-12-07T10:16:28;7.95;;;1.23;;
72369;SDS011;60343;-32.030;115.880;2022-12-07T10:19:20;11.25;;;2.25;;
72369;SDS011;60343;-32.030;115.880;2022-12-07T10:22:00;12.73;;;2.10;;
72369;SDS011;60343;-32.030;115.880;2022-12-07T10:24:40;12.82;;;1.60;;
72369;SDS011;60343;-32.030;115.880;2022-12-07T10:27:17;10.05;;;1.50;;
72369;SDS011;60343;-32.030;115.880;2022-12-07T10:29:55;7.93;;;1.50;;
72369;SDS011;60343;-32.030;115.880;2022-12-07T10:32:28;14.65;;;1.90;;
72369;SDS011;60343;-32.030;115.880;2022-12-07T10:37:51;8.32;;;1.08;;
72369;SDS011;60343;-32.030;115.880;2022-12-07T10:40:30;11.95;;;1.48;;
72369;SDS011;60343;-32.030;115.880;2022-12-07T10:43:02;14.77;;;1.65;;
72369;SDS011;60343;-32.030;115.880;2022-12-07T10:48:10;10.48;;;1.52;;
72369;SDS011;60343;-32.030;115.880;2022-12-07T10:50:47;10.05;;;1.45;;
72369;SDS011;60343;-32.030;115.880;2022-12-07T10:53:32;11.93;;;1.60;;
72369;SDS011;60343;-32.030;115.880;2022-12-07T10:56:34;14.13;;;1.52;;
72369;SDS011;60343;-32.030;115.880;2022-12-07T10:59:36;7.43;;;1.40;;
72369;SDS011;60343;-32.030;115.880;2022-12-07T11:02:27;13.60;;;1.73;;
72369;SDS011;60343;-32.030;115.880;2022-12-07T11:05:15;12.07;;;1.73;;
72369;SDS011;60343;-32.030;115.880;2022-12-07T11:07:59;10.65;;;1.73;;
72369;SDS011;60343;-32.030;115.880;2022-12-07T11:13:31;15.32;;;1.85;;
72369;SDS011;60343;-32.030;115.880;2022-12-07T11:16:21;8.00;;;1.33;;
72369;SDS011;60343;-32.030;115.880;2022-12-07T11:19:12;13.75;;;1.58;;
72369;SDS011;60343;-32.030;115.880;2022-12-07T11:21:52;8.32;;;1.42;;
72369;SDS011;60343;-32.030;115.880;2022-12-07T11:24:23;9.07;;;1.80;;
72369;SDS011;60343;-32.030;115.880;2022-12-07T11:27:05;10.75;;;1.33;;
72369;SDS011;60343;-32.030;115.880;2022-12-07T11:29:43;11.02;;;1.20;;
72369;SDS011;60343;-32.030;115.880;2022-12-07T11:32:33;9.15;;;1.10;;
72369;SDS011;60343;-32.030;115.880;2022-12-07T11:35:22;6.57;;;1.20;;
72369;SDS011;60343;-32.030;115.880;2022-12-07T11:37:59;9.63;;;1.42;;
72369;SDS011;60343;-32.030;115.880;2022-12-07T11:40:34;8.68;;;1.42;;
72369;SDS011;60343;-32.030;115.880;2022-12-07T11:43:05;10.70;;;1.30;;
72369;SDS011;60343;-32.030;115.880;2022-12-07T11:45:41;8.45;;;1.38;;
72369;SDS011;60343;-32.030;115.880;2022-12-07T11:48:11;7.93;;;1.40;;
72369;SDS011;60343;-32.030;115.880;2022-12-07T11:50:51;8.25;;;1.40;;
72369;SDS011;60343;-32.030;115.880;2022-12-07T11:53:24;7.13;;;1.48;;
72369;SDS011;60343;-32.030;115.880;2022-12-07T11:55:56;10.63;;;1.30;;
72369;SDS011;60343;-32.030;115.880;2022-12-07T11:58:39;5.60;;;0.95;;
72369;SDS011;60343;-32.030;115.880;2022-12-07T12:01:14;3.95;;;0.82;;
72369;SDS011;60343;-32.030;115.880;2022-12-07T12:06:32;11.52;;;1.40;;
72369;SDS011;60343;-32.030;115.880;2022-12-07T12:09:01;5.55;;;1.10;;
72369;SDS011;60343;-32.030;115.880;2022-12-07T12:11:37;8.63;;;1.15;;
72369;SDS011;60343;-32.030;115.880;2022-12-07T12:14:23;6.35;;;0.93;;
72369;SDS011;60343;-32.030;115.880;2022-12-07T12:20:06;6.40;;;1.08;;
72369;SDS011;60343;-32.030;115.880;2022-12-07T12:22:49;10.48;;;1.10;;
72369;SDS011;60343;-32.030;115.880;2022-12-07T12:25:21;5.70;;;1.20;;
72369;SDS011;60343;-32.030;115.880;2022-12-07T12:27:50;7.68;;;1.17;;
72369;SDS011;60343;-32.030;115.880;2022-12-07T12:30:30;6.45;;;1.42;;
72369;SDS011;60343;-32.030;115.880;2022-12-07T12:33:04;5.82;;;0.90;;
72369;SDS011;60343;-32.030;115.880;2022-12-07T12:35:39;5.40;;;1.15;;
72369;SDS011;60343;-32.030;115.880;2022-12-07T12:41:17;7.90;;;1.00;;
72369;SDS011;60343;-32.030;115.880;2022-12-07T12:50:15;6.43;;;1.10;;
72369;SDS011;60343;-32.030;115.880;2022-12-07T12:52:49;7.55;;;1.30;;
72369;SDS011;60343;-32.030;115.880;2022-12-07T13:04:12;9.77;;;1.38;;
72369;SDS011;60343;-32.030;115.880;2022-12-07T13:06:45;10.77;;;1.27;;
72369;SDS011;60343;-32.030;115.880;2022-12-07T13:09:18;12.80;;;1.15;;
72369;SDS011;60343;-32.030;115.880;2022-12-07T13:11:48;5.45;;;1.05;;
72369;SDS011;60343;-32.030;115.880;2022-12-07T13:20:19;5.72;;;1.17;;
72369;SDS011;60343;-32.030;115.880;2022-12-07T13:23:26;7.13;;;0.93;;
72369;SDS011;60343;-32.030;115.880;2022-12-07T13:28:52;6.50;;;0.90;;
72369;SDS011;60343;-32.030;115.880;2022-12-07T13:31:38;4.35;;;0.80;;
72369;SDS011;60343;-32.030;115.880;2022-12-07T13:36:57;4.75;;;0.80;;
72369;SDS011;60343;-32.030;115.880;2022-12-07T13:39:26;7.82;;;0.75;;
72369;SDS011;60343;-32.030;115.880;2022-12-07T13:41:54;6.13;;;0.80;;
72369;SDS011;60343;-32.030;115.880;2022-12-07T13:44:25;4.22;;;0.60;;
72369;SDS011;60343;-32.030;115.880;2022-12-07T13:47:00;1.85;;;0.47;;
72369;SDS011;60343;-32.030;115.880;2022-12-07T13:49:37;5.63;;;0.35;;
72369;SDS011;60343;-32.030;115.880;2022-12-07T13:52:16;5.53;;;0.50;;
72369;SDS011;60343;-32.030;115.880;2022-12-07T13:54:45;13.10;;;0.80;;
72369;SDS011;60343;-32.030;115.880;2022-12-07T13:57:14;12.52;;;0.80;;
72369;SDS011;60343;-32.030;115.880;2022-12-07T13:59:42;13.75;;;0.77;;
72369;SDS011;60343;-32.030;115.880;2022-12-07T14:02:26;8.63;;;0.68;;
72369;SDS011;60343;-32.030;115.880;2022-12-07T14:05:06;9.27;;;0.73;;
72369;SDS011;60343;-32.030;115.880;2022-12-07T14:07:47;13.82;;;1.10;;
72369;SDS011;60343;-32.030;115.880;2022-12-07T14:10:25;8.85;;;0.93;;
72369;SDS011;60343;-32.030;115.880;2022-12-07T14:12:54;5.82;;;0.68;;
72369;SDS011;60343;-32.030;115.880;2022-12-07T14:15:23;7.65;;;1.02;;
72369;SDS011;60343;-32.030;115.880;2022-12-07T14:17:58;4.13;;;0.52;;
72369;SDS011;60343;-32.030;115.880;2022-12-07T14:20:30;4.05;;;0.60;;
72369;SDS011;60343;-32.030;115.880;2022-12-07T14:23:00;2.38;;;0.35;;
72369;SDS011;60343;-32.030;115.880;2022-12-07T14:25:28;7.28;;;0.63;;
72369;SDS011;60343;-32.030;115.880;2022-12-07T14:27:59;1.08;;;0.25;;
72369;SDS011;60343;-32.030;115.880;2022-12-07T14:30:27;16.08;;;0.82;;
72369;SDS011;60343;-32.030;115.880;2022-12-07T14:33:03;5.20;;;0.70;;
72369;SDS011;60343;-32.030;115.880;2022-12-07T14:35:32;20.10;;;0.93;;
72369;SDS011;60343;-32.030;115.880;2022-12-07T14:37:59;4.95;;;0.68;;
72369;SDS011;60343;-32.030;115.880;2022-12-07T14:40:27;5.80;;;0.73;;
72369;SDS011;60343;-32.030;115.880;2022-12-07T14:42:55;5.93;;;0.47;;
72369;SDS011;60343;-32.030;115.880;2022-12-07T14:45:26;13.20;;;0.90;;
72369;SDS011;60343;-32.030;115.880;2022-12-07T14:47:54;13.57;;;0.80;;
72369;SDS011;60343;-32.030;115.880;2022-12-07T14:50:27;6.18;;;0.60;;
72369;SDS011;60343;-32.030;115.880;2022-12-07T14:52:56;6.07;;;0.52;;
72369;SDS011;60343;-32.030;115.880;2022-12-07T14:55:31;9.50;;;0.68;;
72369;SDS011;60343;-32.030;115.880;2022-12-07T14:57:59;5.75;;;0.57;;
72369;SDS011;60343;-32.030;115.880;2022-12-07T15:00:27;1.42;;;0.40;;
72369;SDS011;60343;-32.030;115.880;2022-12-07T15:02:55;1.92;;;0.30;;
72369;SDS011;60343;-32.030;115.880;2022-12-07T15:05:28;4.43;;;0.40;;
72369;SDS011;60343;-32.030;115.880;2022-12-07T15:07:56;2.08;;;0.50;;
72369;SDS011;60343;-32.030;115.880;2022-12-07T15:10:25;4.47;;;0.50;;
72369;SDS011;60343;-32.030;115.880;2022-12-07T15:12:53;4.38;;;0.70;;
72369;SDS011;60343;-32.030;115.880;2022-12-07T15:15:21;7.60;;;0.50;;
72369;SDS011;60343;-32.030;115.880;2022-12-07T15:17:48;2.63;;;0.40;;
72369;SDS011;60343;-32.030;115.880;2022-12-07T15:20:17;2.80;;;0.40;;
72369;SDS011;60343;-32.030;115.880;2022-12-07T15:22:50;8.52;;;0.98;;
72369;SDS011;60343;-32.030;115.880;2022-12-07T15:25:18;4.05;;;0.57;;
72369;SDS011;60343;-32.030;115.880;2022-12-07T15:27:45;8.25;;;0.75;;